Terminal Aerodrome Forecast
Issued by NWS

Home | Current Version | Previous Version | Text Only | Print | Product List | Glossary On
Versions: 1 2 3 4 5 6 7 8 9 10 11 12 13 14 15 16
000
FTUS43 KAPX 211600 AAA
TAFMBL
TAF AMD
KMBL 211601Z 2116/2212 36010G18KT P6SM -RA BKN008 OVC016
     FM211900 35012G20KT P6SM BKN035
     FM220100 01009KT P6SM BKN022
      AMD LTD TO CLD VIS AND WIND=

USA.gov is the U.S. government's official web portal to all federal, state and local government web resources and services.